createdAt,value
2019-04-23T00:01:23.587Z,0.85
2019-04-23T00:03:27.134Z,0.82
2019-04-23T00:06:08.555Z,1.05
2019-04-23T00:08:36.536Z,0.85
2019-04-23T00:11:05.271Z,0.95
2019-04-23T00:13:50.248Z,0.93
2019-04-23T00:16:16.989Z,1.35
2019-04-23T00:18:42.281Z,1.20
2019-04-23T00:21:38.508Z,1.30
2019-04-23T00:24:13.818Z,1.10
2019-04-23T00:26:36.728Z,1.02
2019-04-23T00:29:13.480Z,1.20
2019-04-23T00:31:44.301Z,1.07
2019-04-23T00:34:26.830Z,0.75
2019-04-23T00:36:44.160Z,0.57
2019-04-23T00:39:18.922Z,0.93
2019-04-23T00:41:52.878Z,1.07
2019-04-23T00:44:22.887Z,0.75
2019-04-23T00:46:58.331Z,0.88
2019-04-23T00:49:26.563Z,0.80
2019-04-23T00:51:59.240Z,0.60
2019-04-23T00:54:31.973Z,0.90
2019-04-23T00:57:07.503Z,0.55
2019-04-23T00:59:39.046Z,1.10
2019-04-23T01:02:09.965Z,0.65
2019-04-23T01:04:40.423Z,0.80
2019-04-23T01:07:12.746Z,1.12
2019-04-23T01:09:54.186Z,0.72
2019-04-23T01:12:25.632Z,0.78
2019-04-23T01:14:52.018Z,0.98
2019-04-23T01:20:01.718Z,0.60
2019-04-23T01:22:16.678Z,0.57
2019-04-23T01:25:03.083Z,0.82
2019-04-23T01:28:08.050Z,0.72
2019-04-23T01:30:40.520Z,0.50
2019-04-23T01:33:25.547Z,0.60
2019-04-23T01:35:51.188Z,1.25
2019-04-23T01:38:25.994Z,0.55
2019-04-23T01:40:50.385Z,0.53
2019-04-23T01:43:23.755Z,0.80
2019-04-23T01:45:50.211Z,0.62
2019-04-23T01:48:26.558Z,0.65
2019-04-23T01:50:57.532Z,0.60
2019-04-23T01:53:37.114Z,0.45
2019-04-23T01:58:51.958Z,0.50
2019-04-23T02:01:07.140Z,1.30
2019-04-23T02:03:42.606Z,0.57
2019-04-23T02:06:16.573Z,0.65
2019-04-23T02:08:47.103Z,0.82
2019-04-23T02:11:13.242Z,0.50
2019-04-23T02:13:48.983Z,0.45
2019-04-23T02:16:25.774Z,0.50
2019-04-23T02:18:56.525Z,0.47
2019-04-23T02:21:47.459Z,0.57
2019-04-23T02:23:57.146Z,0.62
2019-04-23T02:26:34.167Z,0.60
2019-04-23T02:31:58.218Z,0.35
2019-04-23T02:34:31.041Z,0.40
2019-04-23T02:37:19.365Z,0.30
2019-04-23T02:39:51.940Z,0.57
2019-04-23T02:44:48.952Z,0.60
2019-04-23T02:50:12.420Z,0.45
2019-04-23T02:52:21.731Z,0.60
2019-04-23T02:55:03.893Z,0.60
2019-04-23T02:57:31.206Z,0.30
2019-04-23T03:00:11.711Z,0.30
2019-04-23T03:05:00.722Z,0.20
2019-04-23T03:10:18.325Z,0.30
2019-04-23T03:12:58.725Z,0.23
2019-04-23T03:15:43.652Z,0.30
2019-04-23T03:18:33.220Z,0.40
2019-04-23T03:21:09.957Z,0.35
2019-04-23T03:23:36.614Z,0.42
2019-04-23T03:26:09.320Z,0.50
2019-04-23T03:28:42.924Z,0.30
2019-04-23T03:32:48.579Z,0.30
2019-04-23T03:41:21.526Z,0.20
2019-04-23T03:43:51.766Z,0.33
2019-04-23T03:51:26.011Z,0.30
2019-04-23T03:54:20.423Z,0.60
2019-04-23T03:56:45.088Z,0.40
2019-04-23T04:01:34.332Z,0.30
2019-04-23T04:06:59.467Z,0.62
2019-04-23T04:09:28.697Z,0.50
2019-04-23T04:11:33.627Z,0.30
2019-04-23T04:16:49.672Z,0.30
2019-04-23T04:21:52.006Z,1.05
2019-04-23T04:27:10.171Z,0.40
2019-04-23T04:29:40.865Z,0.28
2019-04-23T04:32:00.461Z,0.40
2019-04-23T04:40:01.219Z,0.57
2019-04-23T04:42:10.332Z,0.40
2019-04-23T04:47:21.447Z,0.30
2019-04-23T04:49:55.728Z,0.85
2019-04-23T04:52:34.215Z,0.60
2019-04-23T04:54:51.906Z,0.50
2019-04-23T04:57:36.802Z,1.00
2019-04-23T05:02:37.789Z,0.60
2019-04-23T05:07:36.097Z,0.65
2019-04-23T05:10:21.269Z,0.68
2019-04-23T05:15:16.808Z,0.25
2019-04-23T05:23:11.304Z,0.30
2019-04-23T05:25:33.093Z,0.20
2019-04-23T05:28:09.624Z,0.60
2019-04-23T05:30:38.093Z,0.60
2019-04-23T05:33:13.370Z,0.50
2019-04-23T05:36:09.146Z,0.42
2019-04-23T05:43:19.285Z,0.88
2019-04-23T05:45:49.094Z,0.45
2019-04-23T05:51:04.269Z,0.62
2019-04-23T05:53:27.809Z,0.55
2019-04-23T05:56:01.935Z,0.40
2019-04-23T05:58:36.960Z,0.40
2019-04-23T06:04:12.308Z,0.20
2019-04-23T06:11:56.890Z,0.60
2019-04-23T06:14:20.443Z,0.50
2019-04-23T06:21:57.568Z,0.40
2019-04-23T06:24:33.001Z,0.30
2019-04-23T06:29:33.053Z,0.40
2019-04-23T06:31:55.211Z,0.57
2019-04-23T06:34:31.463Z,0.20
2019-04-23T06:37:06.888Z,0.42
2019-04-23T06:39:36.750Z,0.30
2019-04-23T06:42:08.103Z,0.30
2019-04-23T06:47:20.079Z,0.23
2019-04-23T06:49:55.940Z,0.60
2019-04-23T06:52:26.554Z,0.75
2019-04-23T06:57:28.515Z,0.50
2019-04-23T07:00:10.274Z,0.30
2019-04-23T07:02:41.602Z,0.30
2019-04-23T07:05:15.983Z,0.50
2019-04-23T07:10:19.817Z,0.40
2019-04-23T07:12:47.154Z,0.55
2019-04-23T07:17:51.962Z,0.78
2019-04-23T07:20:19.920Z,0.40
2019-04-23T07:22:58.166Z,0.40
2019-04-23T07:25:23.958Z,0.35
2019-04-23T07:27:58.501Z,0.57
2019-04-23T07:30:33.339Z,0.70
2019-04-23T07:33:04.186Z,0.50
2019-04-23T07:35:31.712Z,0.37
2019-04-23T07:38:31.504Z,0.57
2019-04-23T07:41:11.942Z,0.75
2019-04-23T07:43:54.479Z,0.65
2019-04-23T07:47:13.155Z,0.62
2019-04-23T07:49:31.080Z,0.50
2019-04-23T07:52:10.655Z,0.90
2019-04-23T07:54:38.792Z,0.65
2019-04-23T07:57:13.504Z,0.98
2019-04-23T07:59:48.699Z,1.85
2019-04-23T08:02:24.127Z,0.72
2019-04-23T08:05:03.511Z,0.93
2019-04-23T08:07:19.929Z,1.95
2019-04-23T08:09:57.591Z,1.80
2019-04-23T08:12:25.580Z,1.25
2019-04-23T08:14:59.838Z,2.58
2019-04-23T08:17:27.846Z,1.70
2019-04-23T08:20:05.787Z,2.12
2019-04-23T08:22:32.364Z,1.95
2019-04-23T08:25:40.733Z,1.50
2019-04-23T08:28:13.546Z,1.07
2019-04-23T08:30:46.539Z,1.67
2019-04-23T08:33:17.581Z,1.57
2019-04-23T08:35:55.739Z,1.02
2019-04-23T08:38:26.101Z,2.00
2019-04-23T08:41:06.116Z,1.30
2019-04-23T08:43:36.417Z,0.90
2019-04-23T08:46:14.005Z,1.72
2019-04-23T08:48:41.347Z,2.10
2019-04-23T08:51:31.885Z,1.17
2019-04-23T08:53:51.612Z,1.12
2019-04-23T08:56:23.672Z,2.10
2019-04-23T08:58:49.341Z,3.47
2019-04-23T09:01:29.820Z,5.72
2019-04-23T09:03:54.588Z,1.90
2019-04-23T09:06:47.262Z,1.70
2019-04-23T09:08:58.535Z,1.42
2019-04-23T09:11:44.021Z,1.80
2019-04-23T09:14:02.341Z,1.22
2019-04-23T09:21:39.933Z,1.45
2019-04-23T09:24:09.586Z,1.22
2019-04-23T09:26:56.183Z,2.10
2019-04-23T09:29:19.951Z,1.80
2019-04-23T09:35:00.817Z,1.95
2019-04-23T09:37:41.961Z,1.77
2019-04-23T09:40:27.126Z,2.42
2019-04-23T09:43:08.758Z,2.67
2019-04-23T09:45:57.475Z,2.20
2019-04-23T09:48:27.310Z,2.42
2019-04-23T09:56:01.193Z,1.70
2019-04-23T09:58:34.589Z,2.70
2019-04-23T10:03:50.832Z,2.47
2019-04-23T10:06:18.306Z,2.30
2019-04-23T10:08:49.418Z,2.42
2019-04-23T10:11:15.955Z,2.35
2019-04-23T10:13:46.270Z,3.47
2019-04-23T10:16:19.459Z,3.08
2019-04-23T10:18:49.107Z,2.27
2019-04-23T10:21:19.613Z,3.12
2019-04-23T10:23:51.541Z,2.67
2019-04-23T10:26:23.934Z,3.47
2019-04-23T10:29:07.755Z,3.30
2019-04-23T10:31:39.878Z,2.65
2019-04-23T10:34:10.338Z,2.45
2019-04-23T10:36:42.693Z,2.90
2019-04-23T10:39:21.191Z,3.35
2019-04-23T10:41:48.185Z,3.15
2019-04-23T10:44:58.883Z,3.12
2019-04-23T10:48:24.662Z,3.52
2019-04-23T10:50:57.690Z,3.55
2019-04-23T10:53:38.330Z,3.33
2019-04-23T10:56:21.386Z,3.05
2019-04-23T10:58:36.930Z,3.45
2019-04-23T11:04:02.825Z,3.47
2019-04-23T11:06:20.419Z,3.02
2019-04-23T11:08:45.572Z,3.00
2019-04-23T11:11:21.893Z,3.20
2019-04-23T11:13:53.026Z,3.15
2019-04-23T11:16:45.918Z,2.52
2019-04-23T11:21:51.201Z,3.58
2019-04-23T11:24:19.016Z,4.30
2019-04-23T11:26:37.048Z,2.85
2019-04-23T11:29:16.349Z,3.00
2019-04-23T11:31:46.145Z,3.27
2019-04-23T11:34:26.588Z,3.80
2019-04-23T11:39:16.236Z,3.95
2019-04-23T11:42:04.885Z,3.02
2019-04-23T11:49:44.936Z,2.92
2019-04-23T11:52:05.678Z,3.92
2019-04-23T11:59:36.106Z,4.72
2019-04-23T12:02:07.585Z,3.98
2019-04-23T12:05:05.759Z,4.05
2019-04-23T12:07:39.440Z,3.58
2019-04-23T12:10:44.543Z,3.85
2019-04-23T12:13:03.909Z,4.03
2019-04-23T12:15:32.054Z,4.42
2019-04-23T12:18:29.950Z,4.75
2019-04-23T12:20:37.610Z,4.62
2019-04-23T12:24:17.174Z,4.40
2019-04-23T12:28:14.085Z,4.05
2019-04-23T12:30:52.137Z,4.67
2019-04-23T12:35:54.008Z,4.78
2019-04-23T12:38:28.313Z,4.72
2019-04-23T12:40:56.330Z,4.60
2019-04-23T12:43:25.746Z,4.72
2019-04-23T12:45:57.617Z,4.53
2019-04-23T12:51:08.920Z,4.72
2019-04-23T12:53:53.152Z,4.75
2019-04-23T12:56:21.349Z,5.12
2019-04-23T12:58:56.327Z,4.55
2019-04-23T13:01:14.005Z,4.00
2019-04-23T13:03:59.430Z,5.30
2019-04-23T13:06:20.867Z,5.30
2019-04-23T13:11:33.331Z,5.25
2019-04-23T13:13:58.639Z,6.37
2019-04-23T13:16:39.469Z,4.70
2019-04-23T13:19:06.714Z,5.33
2019-04-23T13:21:51.780Z,4.28
2019-04-23T13:24:43.698Z,4.53
2019-04-23T13:27:19.867Z,4.17
2019-04-23T13:29:50.078Z,3.83
2019-04-23T13:32:20.498Z,4.50
2019-04-23T13:34:58.889Z,4.83
2019-04-23T13:37:31.696Z,4.15
2019-04-23T13:39:52.965Z,5.33
2019-04-23T13:42:37.225Z,4.80
2019-04-23T13:45:05.252Z,4.72
2019-04-23T13:47:41.401Z,5.50
2019-04-23T13:50:13.100Z,5.95
2019-04-23T13:53:02.652Z,5.80
2019-04-23T13:58:02.267Z,6.92
2019-04-23T14:00:20.994Z,5.35
2019-04-23T14:05:27.082Z,5.78
2019-04-23T14:08:07.023Z,5.60
2019-04-23T14:10:35.986Z,6.45
2019-04-23T14:13:23.880Z,6.35
2019-04-23T14:15:42.090Z,8.08
2019-04-23T14:18:43.120Z,7.20
2019-04-23T14:25:52.115Z,6.95
2019-04-23T14:28:21.603Z,6.22
2019-04-23T14:30:53.817Z,5.87
2019-04-23T14:33:23.165Z,5.37
2019-04-23T14:35:54.485Z,4.95
2019-04-23T14:41:12.467Z,3.80
2019-04-23T14:43:31.472Z,4.25
2019-04-23T14:48:56.712Z,4.58
2019-04-23T14:53:45.770Z,4.53
2019-04-23T14:56:16.203Z,4.08
2019-04-23T15:03:49.304Z,3.67
2019-04-23T15:06:37.961Z,4.03
2019-04-23T15:09:06.257Z,2.83
2019-04-23T15:14:01.947Z,3.37
2019-04-23T15:16:39.169Z,3.83
2019-04-23T15:21:53.765Z,2.98
2019-04-23T15:27:35.965Z,4.00
2019-04-23T15:27:45.566Z,3.98
2019-04-23T15:29:08.513Z,3.50
2019-04-23T15:34:23.944Z,3.77
2019-04-23T15:37:13.522Z,3.62
2019-04-23T15:39:56.644Z,3.80
2019-04-23T15:42:12.686Z,3.58
2019-04-23T15:44:39.401Z,3.83
2019-04-23T15:47:28.288Z,4.08
2019-04-23T15:49:47.443Z,3.80
2019-04-23T15:52:10.833Z,3.47
2019-04-23T15:54:50.535Z,2.80
2019-04-23T15:57:30.699Z,3.60
2019-04-23T16:01:55.796Z,2.98
2019-04-23T16:04:27.619Z,3.62
2019-04-23T16:06:59.438Z,2.72
2019-04-23T16:10:04.335Z,2.62
2019-04-23T16:12:27.728Z,3.70
2019-04-23T16:17:41.710Z,3.52
2019-04-23T16:20:40.503Z,3.17
2019-04-23T16:22:55.982Z,4.15
2019-04-23T16:25:38.017Z,3.12
2019-04-23T16:28:09.366Z,3.65
2019-04-23T16:30:46.253Z,3.10
2019-04-23T16:33:35.323Z,3.25
2019-04-23T16:36:05.589Z,3.47
2019-04-23T16:38:45.575Z,3.33
2019-04-23T16:41:07.720Z,3.30
2019-04-23T16:43:35.253Z,2.87
2019-04-23T16:46:11.482Z,3.85
2019-04-23T16:48:49.236Z,3.58
2019-04-23T16:53:41.816Z,3.85
2019-04-23T16:56:16.643Z,2.83
2019-04-23T16:58:52.681Z,3.90
2019-04-23T17:01:12.374Z,3.58
2019-04-23T17:03:59.981Z,3.42
2019-04-23T17:06:27.157Z,3.80
2019-04-23T17:08:57.924Z,3.40
2019-04-23T17:11:30.930Z,3.72
2019-04-23T17:19:13.372Z,4.00
2019-04-23T17:21:39.004Z,3.85
2019-04-23T17:27:03.861Z,3.62
2019-04-23T17:29:17.607Z,3.95
2019-04-23T17:32:04.109Z,4.47
2019-04-23T17:34:30.856Z,4.12
2019-04-23T17:37:07.013Z,3.70
2019-04-23T17:42:55.495Z,4.22
2019-04-23T17:48:13.477Z,3.92
2019-04-23T17:50:56.775Z,5.08
2019-04-23T17:53:25.279Z,3.02
2019-04-23T17:56:15.256Z,4.00
2019-04-23T17:58:28.556Z,3.98
2019-04-23T18:01:16.998Z,4.45
2019-04-23T18:03:52.812Z,3.75
2019-04-23T18:08:54.011Z,4.70
2019-04-23T18:11:21.552Z,4.22
2019-04-23T18:13:49.799Z,4.08
2019-04-23T18:16:32.945Z,5.20
2019-04-23T18:24:37.757Z,4.80
2019-04-23T18:27:16.970Z,3.77
2019-04-23T18:30:00.777Z,4.28
2019-04-23T18:32:44.638Z,4.35
2019-04-23T18:40:05.164Z,4.50
2019-04-23T18:43:07.334Z,4.65
2019-04-23T18:45:22.883Z,4.90
2019-04-23T18:50:30.078Z,5.15
2019-04-23T18:52:56.941Z,4.20
2019-04-23T18:55:37.036Z,5.47
2019-04-23T18:57:57.361Z,5.97
2019-04-23T19:00:57.802Z,4.97
2019-04-23T19:05:58.723Z,5.72
2019-04-23T19:08:54.106Z,5.22
2019-04-23T19:11:41.807Z,5.80
2019-04-23T19:13:57.313Z,5.53
2019-04-23T19:16:37.644Z,4.55
2019-04-23T19:19:02.157Z,5.37
2019-04-23T19:22:00.957Z,5.62
2019-04-23T19:24:03.380Z,4.95
2019-04-23T19:32:01.838Z,4.90
2019-04-23T19:39:46.865Z,5.33
2019-04-23T19:42:15.679Z,4.58
2019-04-23T19:47:38.543Z,5.05
2019-04-23T19:49:57.063Z,4.83
2019-04-23T19:52:52.297Z,4.97
2019-04-23T19:57:42.690Z,5.47
2019-04-23T20:00:04.331Z,5.10
2019-04-23T20:02:55.344Z,5.95
2019-04-23T20:05:07.277Z,6.15
2019-04-23T20:07:54.171Z,5.83
2019-04-23T20:10:12.334Z,5.75
2019-04-23T20:12:51.817Z,6.03
2019-04-23T20:15:14.149Z,6.42
2019-04-23T20:17:53.868Z,5.42
2019-04-23T20:20:35.390Z,6.28
2019-04-23T20:28:16.932Z,6.40
2019-04-23T20:36:14.069Z,5.87
2019-04-23T20:43:48.994Z,5.25
2019-04-23T20:46:27.368Z,5.70
2019-04-23T20:51:24.784Z,4.95
2019-04-23T20:53:57.315Z,5.45
2019-04-23T20:59:00.171Z,5.95
2019-04-23T21:01:48.148Z,5.55
2019-04-23T21:04:17.607Z,6.10
2019-04-23T21:06:50.361Z,6.05
2019-04-23T21:12:06.708Z,6.40
2019-04-23T21:16:56.071Z,5.90
2019-04-23T21:19:32.678Z,5.83
2019-04-23T21:22:13.928Z,6.20
2019-04-23T21:24:42.430Z,7.03
2019-04-23T21:27:38.643Z,6.47
2019-04-23T21:32:43.771Z,6.05
2019-04-23T21:41:00.912Z,7.00
2019-04-23T21:43:47.384Z,7.42
2019-04-23T21:46:14.590Z,7.20
2019-04-23T21:48:53.193Z,6.80
2019-04-23T21:51:24.187Z,7.90
2019-04-23T21:53:50.680Z,7.47
2019-04-23T21:56:15.226Z,7.80
2019-04-23T21:58:57.834Z,7.30
2019-04-23T22:04:08.905Z,7.28
2019-04-23T22:06:36.963Z,8.03
2019-04-23T22:19:21.362Z,8.50
2019-04-23T22:21:47.278Z,8.50
2019-04-23T22:26:58.139Z,8.45
2019-04-23T22:37:09.855Z,11.45
2019-04-23T22:39:32.045Z,11.15
2019-04-23T22:42:04.345Z,10.98
2019-04-23T22:44:48.139Z,10.50
2019-04-23T22:47:19.278Z,10.68
2019-04-23T22:49:47.429Z,11.43
2019-04-23T22:52:31.473Z,11.43
2019-04-23T22:54:57.158Z,10.93
2019-04-23T22:57:12.641Z,11.35
2019-04-23T23:00:04.388Z,10.63
2019-04-23T23:07:47.020Z,9.23
2019-04-23T23:12:52.876Z,9.40
2019-04-23T23:18:08.568Z,8.60
2019-04-23T23:20:25.462Z,8.80
2019-04-23T23:23:05.628Z,9.18
2019-04-23T23:25:25.592Z,9.50
2019-04-23T23:28:12.116Z,9.03
2019-04-23T23:30:33.438Z,8.15
2019-04-23T23:33:04.141Z,8.80
2019-04-23T23:38:09.831Z,8.25
2019-04-23T23:40:35.404Z,8.13
2019-04-23T23:45:45.522Z,7.53
2019-04-23T23:48:12.978Z,8.40
2019-04-23T23:50:57.034Z,9.18
2019-04-23T23:53:24.961Z,8.75
2019-04-23T23:55:58.721Z,8.48
